Terminal Aerodrome Forecast
Issued by NWS

Home | Current Version | Previous Version | Text Only | Print | Product List | Glossary On
Versions: 1 2 3 4 5 6 7 8 9 10 11 12 13 14 15 16 17 18 19 20 21 22 23 24 25 26 27 28
000
FTUS41 KOKX 131700
TAFTEB
TAF
KTEB 131724Z 1318/1418 18011G19KT P6SM BKN060
     FM132000 19014G21KT P6SM BKN060 BKN150
     FM140000 19010KT P6SM BKN060 BKN100
      TEMPO 1401/1404 4SM TSRA BKN040CB
     FM140600 19007KT 4SM BR SCT006 BKN040 BKN080
     FM141500 21009KT P6SM SCT020 BKN040=

USA.gov is the U.S. government's official web portal to all federal, state and local government web resources and services.